Time;durP1;ratioP1;P1;durP2;ratioP2;P2;SDS_P1;SDS_P2;PMS_P1;PMS_P2;Temp;Humidity;BMP_temperature;BMP_pressure;BME280_temperature;BME280_humidity;BME280_pressure;Samples;Min_cycle;Max_cycle;Signal;HPM_P1;HPM_P2
2021/08/27 00:02:13;;;;;;;2.13;0.70;;;14.80;74.40;;;;;;5041589;28;20029;-77
2021/08/27 00:04:39;;;;;;;1.42;0.70;;;14.80;74.40;;;;;;5046314;28;20090;-77
2021/08/27 00:07:04;;;;;;;1.50;0.47;;;14.80;74.40;;;;;;5036321;28;20056;-77
2021/08/27 00:09:30;;;;;;;1.95;0.63;;;14.80;74.50;;;;;;5043418;28;20044;-77
2021/08/27 00:11:56;;;;;;;2.83;0.88;;;14.80;74.50;;;;;;5042611;28;20013;-77
2021/08/27 00:14:22;;;;;;;2.88;1.00;;;14.70;74.60;;;;;;5050478;28;20029;-77
2021/08/27 00:16:47;;;;;;;2.03;0.70;;;14.70;74.90;;;;;;5042967;28;20108;-77
2021/08/27 00:19:13;;;;;;;2.80;0.63;;;14.70;74.90;;;;;;5037844;28;20025;-77
2021/08/27 00:21:38;;;;;;;1.50;0.70;;;14.70;75.00;;;;;;5049095;28;20399;-77
2021/08/27 00:24:06;;;;;;;1.17;0.50;;;14.70;75.00;;;;;;5050182;28;20017;-78
2021/08/27 00:26:32;;;;;;;1.27;0.52;;;14.70;75.00;;;;;;5046272;28;20025;-76
2021/08/27 00:28:58;;;;;;;2.00;0.60;;;14.60;75.00;;;;;;5042164;28;20017;-77
2021/08/27 00:31:24;;;;;;;1.35;0.63;;;14.60;75.10;;;;;;5046924;28;20373;-77
2021/08/27 00:33:50;;;;;;;1.73;0.70;;;14.60;75.30;;;;;;5044141;28;20126;-78
2021/08/27 00:36:16;;;;;;;1.95;0.70;;;14.50;75.30;;;;;;5045228;28;20017;-78
2021/08/27 00:38:41;;;;;;;1.77;0.70;;;14.50;75.30;;;;;;5049064;28;20025;-77
2021/08/27 00:41:07;;;;;;;3.30;0.90;;;14.60;75.40;;;;;;5038224;28;20033;-77
2021/08/27 00:43:32;;;;;;;1.95;0.70;;;14.60;75.50;;;;;;5032077;28;20494;-77
2021/08/27 00:45:58;;;;;;;2.50;0.90;;;14.60;75.50;;;;;;5040606;28;20032;-77
2021/08/27 00:48:24;;;;;;;2.47;0.70;;;14.60;75.40;;;;;;5048467;28;20024;-79
2021/08/27 00:50:50;;;;;;;2.85;1.10;;;14.60;75.50;;;;;;5038174;28;20049;-78
2021/08/27 00:53:16;;;;;;;2.45;0.80;;;14.60;75.50;;;;;;5049472;28;20027;-78
2021/08/27 00:55:44;;;;;;;3.30;0.70;;;14.60;75.50;;;;;;5039816;28;20096;-78
2021/08/27 00:58:09;;;;;;;1.25;0.50;;;14.60;75.50;;;;;;5043205;28;20029;-78
2021/08/27 01:00:35;;;;;;;2.03;0.80;;;14.60;75.50;;;;;;5048980;28;20071;-77
2021/08/27 01:03:02;;;;;;;1.42;0.50;;;14.60;75.50;;;;;;5050680;28;20478;-78
2021/08/27 01:05:28;;;;;;;1.65;0.60;;;14.60;75.60;;;;;;5038907;28;20026;-78
2021/08/27 01:08:26;;;;;;;1.85;0.60;;;14.60;75.60;;;;;;5033227;28;20491;-78
2021/08/27 01:11:00;;;;;;;1.13;0.52;;;14.60;75.60;;;;;;5032038;28;20061;-79
2021/08/27 01:13:42;;;;;;;0.60;0.50;;;14.60;75.60;;;;;;5044490;28;20067;-78
2021/08/27 01:16:17;;;;;;;2.13;0.68;;;14.50;75.50;;;;;;5047673;28;20057;-78
2021/08/27 01:18:56;;;;;;;1.75;0.70;;;14.50;75.50;;;;;;5035430;28;20027;-78
2021/08/27 01:22:08;;;;;;;2.65;0.70;;;14.50;75.50;;;;;;5044919;28;20544;-78
2021/08/27 01:24:35;;;;;;;2.03;0.70;;;14.50;75.60;;;;;;5034004;28;20522;-78
2021/08/27 01:27:04;;;;;;;1.15;0.70;;;14.50;75.60;;;;;;5046269;28;20025;-78
2021/08/27 01:29:56;;;;;;;2.33;0.77;;;14.50;75.70;;;;;;5049748;28;20057;-78
2021/08/27 01:32:33;;;;;;;1.98;0.60;;;14.40;75.70;;;;;;5048837;28;20032;-78
2021/08/27 01:34:59;;;;;;;1.63;0.85;;;14.40;75.70;;;;;;5041967;28;20029;-76
2021/08/27 01:37:25;;;;;;;3.85;0.70;;;14.40;75.80;;;;;;5041696;28;20518;-77
2021/08/27 01:39:56;;;;;;;1.98;0.60;;;14.40;75.90;;;;;;5041383;28;20021;-77
2021/08/27 01:42:24;;;;;;;0.90;0.63;;;14.40;76.00;;;;;;5031594;28;20029;-77
2021/08/27 01:44:53;;;;;;;1.23;0.60;;;14.40;76.00;;;;;;5047585;28;20033;-77
2021/08/27 01:47:24;;;;;;;2.38;0.70;;;14.40;76.10;;;;;;5043451;28;20029;-77
2021/08/27 01:49:50;;;;;;;1.52;0.60;;;14.40;76.10;;;;;;5045381;28;20379;-77
2021/08/27 01:52:16;;;;;;;4.13;0.70;;;14.30;76.10;;;;;;5047555;28;20034;-77
2021/08/27 01:54:43;;;;;;;1.65;0.60;;;14.40;76.30;;;;;;5041919;28;20044;-77
2021/08/27 01:57:10;;;;;;;2.97;0.70;;;14.40;76.20;;;;;;5030279;28;20496;-77
2021/08/27 01:59:40;;;;;;;2.70;0.75;;;14.40;76.20;;;;;;5033784;28;20487;-77
2021/08/27 02:02:08;;;;;;;2.08;0.75;;;14.40;76.20;;;;;;5032105;28;20037;-77
2021/08/27 02:04:38;;;;;;;2.42;0.82;;;14.30;76.20;;;;;;5039612;28;20026;-77
2021/08/27 02:07:05;;;;;;;2.20;0.80;;;14.30;76.20;;;;;;5033985;28;20140;-78
2021/08/27 02:09:32;;;;;;;1.77;0.70;;;14.30;76.20;;;;;;5051633;28;20041;-77
2021/08/27 02:11:58;;;;;;;2.10;0.73;;;14.30;76.20;;;;;;5053220;28;20396;-76
2021/08/27 02:14:24;;;;;;;0.95;0.60;;;14.30;76.20;;;;;;5040074;28;20024;-78
2021/08/27 02:16:50;;;;;;;2.28;0.77;;;14.30;76.20;;;;;;5036383;28;20036;-77
2021/08/27 02:19:15;;;;;;;2.97;0.90;;;14.30;76.20;;;;;;5042500;28;20609;-78
2021/08/27 02:21:45;;;;;;;3.55;0.85;;;14.30;76.20;;;;;;5052224;28;20055;-78
2021/08/27 02:24:15;;;;;;;1.73;0.70;;;14.30;76.30;;;;;;5046311;28;20032;-78
2021/08/27 02:26:43;;;;;;;2.33;0.70;;;14.30;76.30;;;;;;5036450;28;20036;-78
2021/08/27 02:29:11;;;;;;;2.10;0.70;;;14.30;76.30;;;;;;5039933;28;20029;-78
2021/08/27 02:31:38;;;;;;;2.20;0.93;;;14.30;76.30;;;;;;5047179;28;20032;-78
2021/08/27 02:34:06;;;;;;;1.90;0.52;;;14.30;76.30;;;;;;5039339;28;20427;-77
2021/08/27 02:36:31;;;;;;;2.45;0.80;;;14.30;76.30;;;;;;5043223;28;20029;-78
2021/08/27 02:38:58;;;;;;;2.47;0.77;;;14.30;76.30;;;;;;5042423;28;20151;-78
2021/08/27 02:41:24;;;;;;;2.10;0.70;;;14.30;76.30;;;;;;5036093;28;20033;-78
2021/08/27 02:43:50;;;;;;;2.15;0.80;;;14.30;76.40;;;;;;5041963;28;20033;-78
2021/08/27 02:46:15;;;;;;;1.33;0.70;;;14.30;76.30;;;;;;5032548;28;20112;-78
2021/08/27 02:48:41;;;;;;;2.45;0.70;;;14.40;76.40;;;;;;5043744;28;20112;-78
2021/08/27 02:51:12;;;;;;;2.90;0.90;;;14.40;76.40;;;;;;5038841;28;20111;-78
2021/08/27 02:53:41;;;;;;;2.35;0.80;;;14.40;76.40;;;;;;5032239;28;20041;-77
2021/08/27 02:56:27;;;;;;;1.63;0.70;;;14.40;76.50;;;;;;5049045;28;20068;-79
2021/08/27 02:58:55;;;;;;;2.50;0.80;;;14.30;76.50;;;;;;5049583;28;20094;-77
2021/08/27 03:01:40;;;;;;;3.35;0.77;;;14.30;76.50;;;;;;5036524;28;20028;-78
2021/08/27 03:04:32;;;;;;;3.25;0.90;;;14.30;76.70;;;;;;5046037;28;20091;-78
2021/08/27 03:07:06;;;;;;;2.60;0.80;;;14.30;76.60;;;;;;5045820;28;20057;-78
2021/08/27 03:09:54;;;;;;;2.03;1.00;;;14.30;76.60;;;;;;5039688;28;20032;-78
2021/08/27 03:12:27;;;;;;;3.15;0.82;;;14.30;76.70;;;;;;5051880;28;20610;-78
2021/08/27 03:14:57;;;;;;;1.45;0.75;;;14.30;76.60;;;;;;5042266;28;20030;-78
2021/08/27 03:17:26;;;;;;;0.93;0.60;;;14.30;77.30;;;;;;5037277;28;20087;-78
2021/08/27 03:20:01;;;;;;;2.78;0.90;;;14.30;76.60;;;;;;5043773;28;20025;-77
2021/08/27 03:22:41;;;;;;;2.45;0.93;;;14.30;76.70;;;;;;5036246;28;20033;-79
2021/08/27 03:25:10;;;;;;;1.52;0.60;;;14.30;76.60;;;;;;5048345;28;20028;-77
2021/08/27 03:27:47;;;;;;;0.90;0.63;;;14.40;76.50;;;;;;5038512;28;20025;-78
2021/08/27 03:30:19;;;;;;;1.90;0.90;;;14.40;76.60;;;;;;5032930;28;20056;-75
2021/08/27 03:32:58;;;;;;;1.65;0.77;;;14.30;76.60;;;;;;5047330;28;20021;-77
2021/08/27 03:35:24;;;;;;;1.20;0.70;;;14.40;76.80;;;;;;5042594;28;20064;-76
2021/08/27 03:37:51;;;;;;;2.28;0.70;;;14.40;76.70;;;;;;5042640;28;20025;-76
2021/08/27 03:40:19;;;;;;;2.83;0.80;;;14.40;76.60;;;;;;5035311;28;20016;-77
2021/08/27 03:42:45;;;;;;;2.10;0.70;;;14.50;76.60;;;;;;5036155;28;20091;-77
2021/08/27 03:45:12;;;;;;;1.75;0.70;;;14.50;76.60;;;;;;5039910;28;20033;-77
2021/08/27 03:47:40;;;;;;;1.00;0.70;;;14.50;76.50;;;;;;5039046;28;20040;-77
2021/08/27 03:50:11;;;;;;;1.85;0.80;;;14.50;76.50;;;;;;5049387;28;20029;-77
2021/08/27 03:52:39;;;;;;;2.83;0.80;;;14.60;76.60;;;;;;5032520;28;20032;-77
2021/08/27 03:55:06;;;;;;;1.52;0.70;;;14.60;76.50;;;;;;5043718;28;20026;-76
2021/08/27 03:57:31;;;;;;;0.90;0.65;;;14.60;76.50;;;;;;5038185;28;20029;-75
2021/08/27 03:59:59;;;;;;;1.70;0.80;;;14.60;76.50;;;;;;5042884;28;20098;-76
2021/08/27 04:02:26;;;;;;;1.70;0.70;;;14.60;76.60;;;;;;5041095;28;20040;-76
2021/08/27 04:05:14;;;;;;;1.10;0.70;;;14.60;76.60;;;;;;5042814;28;20024;-77
2021/08/27 04:07:40;;;;;;;1.40;0.60;;;14.60;76.50;;;;;;5037868;28;20033;-77
2021/08/27 04:10:06;;;;;;;1.08;0.70;;;14.60;76.50;;;;;;5040443;28;20529;-77
2021/08/27 04:12:32;;;;;;;1.55;0.80;;;14.60;76.60;;;;;;5037929;28;20032;-76
2021/08/27 04:14:58;;;;;;;1.95;0.80;;;14.60;76.60;;;;;;5040281;28;20017;-74
2021/08/27 04:17:23;;;;;;;2.75;0.52;;;14.60;76.70;;;;;;5045048;28;20139;-78
2021/08/27 04:19:49;;;;;;;2.35;0.82;;;14.60;76.70;;;;;;5039753;28;20113;-75
2021/08/27 04:22:14;;;;;;;1.98;0.77;;;14.50;76.70;;;;;;5037136;28;20028;-75
2021/08/27 04:24:40;;;;;;;2.65;0.80;;;14.50;76.70;;;;;;5049368;28;20108;-75
2021/08/27 04:27:05;;;;;;;2.22;0.70;;;14.50;76.90;;;;;;5038603;28;20375;-75
2021/08/27 04:29:31;;;;;;;1.10;0.68;;;14.40;77.00;;;;;;5049797;28;20588;-74
2021/08/27 04:31:57;;;;;;;1.80;0.70;;;14.50;77.00;;;;;;5036469;28;20022;-75
2021/08/27 04:34:23;;;;;;;1.65;0.70;;;14.40;77.00;;;;;;5048769;28;20108;-75
2021/08/27 04:36:49;;;;;;;1.02;0.80;;;14.40;77.10;;;;;;5045696;28;20029;-75
2021/08/27 04:39:15;;;;;;;1.77;0.60;;;14.40;77.20;;;;;;5044345;28;20025;-76
2021/08/27 04:41:40;;;;;;;2.42;1.00;;;14.40;77.30;;;;;;5040611;28;20033;-79
2021/08/27 04:44:06;;;;;;;1.77;0.70;;;14.40;77.30;;;;;;5041407;28;20025;-74
2021/08/27 04:46:31;;;;;;;2.22;0.80;;;14.40;77.30;;;;;;5038651;28;20025;-76
2021/08/27 04:48:57;;;;;;;1.92;0.82;;;14.40;77.40;;;;;;5039215;28;20549;-76
2021/08/27 04:51:22;;;;;;;1.45;0.80;;;14.40;77.40;;;;;;5043146;28;20029;-76
2021/08/27 04:53:48;;;;;;;3.33;0.75;;;14.40;77.50;;;;;;5050302;28;20029;-75
2021/08/27 04:56:13;;;;;;;1.20;0.70;;;14.40;77.50;;;;;;5043184;28;20076;-77
2021/08/27 04:58:39;;;;;;;1.65;0.70;;;14.40;77.50;;;;;;5032913;28;20025;-77
2021/08/27 05:01:04;;;;;;;1.70;0.80;;;14.40;77.50;;;;;;5047582;28;20044;-76
2021/08/27 05:03:30;;;;;;;1.52;0.63;;;14.40;77.50;;;;;;5049807;28;20433;-76
2021/08/27 05:05:56;;;;;;;1.20;0.80;;;14.40;77.60;;;;;;5040524;28;20044;-76
2021/08/27 05:08:21;;;;;;;1.92;0.90;;;14.50;77.70;;;;;;5044316;28;20121;-76
2021/08/27 05:10:47;;;;;;;2.00;0.90;;;14.40;77.80;;;;;;5047193;28;20051;-76
2021/08/27 05:13:12;;;;;;;1.50;0.80;;;14.40;78.00;;;;;;5042673;28;20235;-77
2021/08/27 05:15:38;;;;;;;1.48;0.73;;;14.40;78.00;;;;;;5037692;28;20100;-76
2021/08/27 05:18:04;;;;;;;1.42;0.60;;;14.50;78.00;;;;;;5042081;28;20183;-77
2021/08/27 05:20:29;;;;;;;1.13;0.57;;;14.50;77.90;;;;;;5041767;28;20036;-77
2021/08/27 05:22:55;;;;;;;2.25;0.80;;;14.60;77.90;;;;;;5041175;28;20049;-77
2021/08/27 05:25:20;;;;;;;1.35;0.82;;;14.60;77.80;;;;;;5036111;28;20392;-78
2021/08/27 05:27:46;;;;;;;1.83;0.70;;;14.70;77.80;;;;;;5033298;28;20040;-78
2021/08/27 05:30:12;;;;;;;1.67;0.80;;;14.80;77.70;;;;;;5038797;28;20056;-77
2021/08/27 05:32:38;;;;;;;2.72;0.70;;;14.80;77.70;;;;;;5035491;28;20028;-77
2021/08/27 05:35:04;;;;;;;1.05;0.60;;;15.00;77.60;;;;;;5047614;28;20025;-76
2021/08/27 05:37:29;;;;;;;0.80;0.63;;;15.10;77.20;;;;;;5042116;28;20029;-77
2021/08/27 05:39:55;;;;;;;1.30;0.70;;;15.30;77.10;;;;;;5048700;28;20029;-77
2021/08/27 05:42:20;;;;;;;2.08;0.63;;;15.50;76.60;;;;;;5037929;28;20033;-77
2021/08/27 05:44:46;;;;;;;3.17;0.70;;;15.40;76.30;;;;;;5036879;28;20025;-77
2021/08/27 05:47:11;;;;;;;3.30;0.85;;;15.50;76.30;;;;;;5039960;28;20365;-77
2021/08/27 05:49:37;;;;;;;1.38;0.70;;;15.60;76.30;;;;;;5045719;28;20166;-77
2021/08/27 05:52:03;;;;;;;1.50;0.75;;;15.60;76.40;;;;;;5048535;28;20618;-76
2021/08/27 05:54:29;;;;;;;1.55;0.70;;;15.60;76.40;;;;;;5034631;28;20033;-77
2021/08/27 05:56:56;;;;;;;2.35;0.88;;;15.60;76.40;;;;;;5040784;28;20028;-78
2021/08/27 05:59:21;;;;;;;3.83;0.80;;;15.60;76.60;;;;;;5041401;28;20025;-79
2021/08/27 06:01:47;;;;;;;1.60;0.82;;;15.60;76.70;;;;;;5038889;28;20037;-75
2021/08/27 06:04:13;;;;;;;1.75;0.90;;;15.60;76.80;;;;;;5040611;28;20057;-77
2021/08/27 06:06:40;;;;;;;1.58;0.80;;;15.70;76.90;;;;;;5048275;28;20116;-78
2021/08/27 06:09:06;;;;;;;1.80;0.88;;;15.70;76.90;;;;;;5044686;28;20021;-78
2021/08/27 06:11:35;;;;;;;2.53;0.70;;;15.70;77.00;;;;;;5046438;28;20037;-75
2021/08/27 06:14:01;;;;;;;2.13;0.80;;;15.70;77.00;;;;;;5039687;28;20103;-76
2021/08/27 06:16:27;;;;;;;1.40;0.70;;;15.70;77.00;;;;;;5031581;28;20121;-77
2021/08/27 06:18:52;;;;;;;2.65;0.70;;;15.70;77.00;;;;;;5045716;28;20033;-77
2021/08/27 06:21:18;;;;;;;1.33;0.70;;;15.70;77.10;;;;;;5036409;28;20044;-76
2021/08/27 06:23:43;;;;;;;2.38;0.77;;;15.80;77.20;;;;;;5051759;28;20021;-76
2021/08/27 06:26:09;;;;;;;1.60;0.80;;;15.80;77.10;;;;;;5040293;28;20416;-76
2021/08/27 06:28:34;;;;;;;1.02;0.60;;;15.90;77.10;;;;;;5045281;28;20025;-76
2021/08/27 06:31:03;;;;;;;2.05;0.80;;;15.90;77.10;;;;;;5039541;28;20103;-77
2021/08/27 06:33:31;;;;;;;3.65;0.95;;;15.80;77.20;;;;;;5033306;28;20034;-76
2021/08/27 06:35:57;;;;;;;2.40;0.93;;;15.90;77.40;;;;;;5043691;28;20009;-77
2021/08/27 06:38:26;;;;;;;1.27;0.70;;;15.90;77.40;;;;;;5039824;28;20034;-77
2021/08/27 06:40:55;;;;;;;1.60;0.63;;;16.10;77.00;;;;;;5032957;28;20029;-77
2021/08/27 06:43:21;;;;;;;0.80;0.63;;;16.20;76.80;;;;;;5042293;28;20033;-77
2021/08/27 06:45:47;;;;;;;3.20;1.00;;;16.40;76.70;;;;;;5041525;28;20430;-77
2021/08/27 06:48:13;;;;;;;1.90;0.80;;;16.90;75.70;;;;;;5047738;28;20025;-76
2021/08/27 06:50:38;;;;;;;1.50;0.68;;;16.90;75.10;;;;;;5038595;28;20025;-77
2021/08/27 06:53:06;;;;;;;0.82;0.60;;;16.80;75.30;;;;;;5040169;28;20472;-77
2021/08/27 06:55:33;;;;;;;1.83;0.65;;;16.70;75.40;;;;;;5041506;28;20036;-77
2021/08/27 06:58:02;;;;;;;1.05;0.55;;;16.70;75.70;;;;;;5037469;28;20104;-76
2021/08/27 07:00:28;;;;;;;2.50;0.80;;;16.60;75.90;;;;;;5041962;28;20028;-76
2021/08/27 07:02:53;;;;;;;2.00;1.05;;;16.60;75.90;;;;;;5041260;28;20033;-76
2021/08/27 07:05:19;;;;;;;1.35;0.65;;;16.60;76.00;;;;;;5037336;28;20033;-76
2021/08/27 07:07:45;;;;;;;1.25;0.73;;;16.70;75.80;;;;;;5052511;28;20031;-76
2021/08/27 07:10:10;;;;;;;1.48;0.80;;;16.80;75.60;;;;;;5044803;28;20021;-76
2021/08/27 07:12:36;;;;;;;1.73;0.70;;;16.90;75.50;;;;;;5032924;28;20487;-77
2021/08/27 07:15:03;;;;;;;1.50;0.70;;;16.90;75.50;;;;;;5038515;28;20040;-77
2021/08/27 07:17:28;;;;;;;1.17;0.85;;;16.90;75.40;;;;;;5038946;28;20033;-77
2021/08/27 07:32:51;;;;;;;1.75;0.70;;;21.30;66.00;;;;;;5782302;22;20119;-77
2021/08/27 07:35:16;;;;;;;1.98;0.80;;;23.10;62.10;;;;;;5028680;28;20026;-79
2021/08/27 07:37:43;;;;;;;2.22;0.73;;;22.70;60.60;;;;;;5028441;28;20029;-78
2021/08/27 07:40:11;;;;;;;2.85;0.90;;;22.90;59.80;;;;;;5029871;28;20060;-80
2021/08/27 07:42:36;;;;;;;1.48;0.60;;;22.50;60.30;;;;;;5027812;28;20033;-78
2021/08/27 07:45:02;;;;;;;3.08;1.17;;;21.60;62.00;;;;;;5029499;28;20022;-79
2021/08/27 07:47:28;;;;;;;3.30;1.20;;;20.90;63.80;;;;;;5028581;28;20021;-79
2021/08/27 07:49:53;;;;;;;2.85;0.98;;;20.90;64.50;;;;;;5030319;28;20117;-79
2021/08/27 07:52:19;;;;;;;2.05;0.60;;;20.80;64.40;;;;;;5028050;28;20105;-79
2021/08/27 07:54:45;;;;;;;3.58;0.90;;;20.30;65.60;;;;;;5029259;28;20029;-79
2021/08/27 07:57:10;;;;;;;3.05;1.00;;;19.70;66.60;;;;;;5028212;28;20040;-79
2021/08/27 07:59:36;;;;;;;3.88;1.00;;;19.20;67.80;;;;;;5027784;28;20026;-79
2021/08/27 08:02:01;;;;;;;3.78;1.10;;;18.80;68.70;;;;;;5029166;28;20033;-78
2021/08/27 08:04:27;;;;;;;1.63;0.93;;;18.60;69.60;;;;;;5028925;28;20021;-77
2021/08/27 08:06:52;;;;;;;2.15;1.00;;;18.50;70.10;;;;;;5028745;28;20075;-77
2021/08/27 08:09:18;;;;;;;2.05;0.75;;;18.30;70.70;;;;;;5030405;28;20098;-76
2021/08/27 08:11:43;;;;;;;1.88;0.70;;;18.10;71.30;;;;;;5029815;28;20381;-77
2021/08/27 08:14:09;;;;;;;1.98;0.70;;;18.00;71.90;;;;;;5030077;28;20029;-76
2021/08/27 08:16:35;;;;;;;3.10;0.90;;;17.90;72.20;;;;;;5028123;28;20618;-76
2021/08/27 08:19:00;;;;;;;1.75;0.90;;;18.00;72.60;;;;;;5029164;28;20029;-76
2021/08/27 08:21:26;;;;;;;3.13;1.00;;;18.40;72.40;;;;;;5056888;28;20053;-75
2021/08/27 08:23:53;;;;;;;1.15;0.88;;;18.90;70.90;;;;;;5028192;28;20048;-76
2021/08/27 08:26:22;;;;;;;1.73;0.80;;;18.90;70.10;;;;;;5028989;28;20068;-76
2021/08/27 08:28:48;;;;;;;2.60;0.70;;;19.30;69.70;;;;;;5026479;28;20033;-78
2021/08/27 08:31:20;;;;;;;1.42;0.68;;;20.20;67.80;;;;;;5028385;28;20770;-76
2021/08/27 08:33:47;;;;;;;2.17;0.90;;;21.80;63.90;;;;;;5028691;28;20033;-79
2021/08/27 08:36:12;;;;;;;2.70;0.90;;;23.20;60.00;;;;;;5028185;28;20033;-77
2021/08/27 08:38:38;;;;;;;2.50;0.93;;;23.90;57.90;;;;;;5035535;28;20029;-76
2021/08/27 08:41:04;;;;;;;3.00;1.00;;;24.30;56.50;;;;;;5032006;28;20017;-78
2021/08/27 08:43:30;;;;;;;2.15;1.00;;;24.00;56.50;;;;;;5025939;28;20087;-79
2021/08/27 08:45:56;;;;;;;3.05;1.00;;;23.50;58.00;;;;;;5028029;28;20026;-77
2021/08/27 08:48:23;;;;;;;3.03;1.10;;;23.70;58.00;;;;;;5031681;28;20041;-78
2021/08/27 08:50:52;;;;;;;2.95;1.27;;;22.80;58.70;;;;;;5028984;28;20591;-78
2021/08/27 08:53:26;;;;;;;3.13;1.10;;;21.90;60.70;;;;;;5032410;28;20392;-77
2021/08/27 08:55:52;;;;;;;3.53;1.17;;;21.30;62.20;;;;;;5026906;28;20108;-77
2021/08/27 08:58:21;;;;;;;3.60;1.23;;;20.60;63.50;;;;;;5030679;28;20087;-77
2021/08/27 09:00:47;;;;;;;2.13;0.82;;;20.20;64.80;;;;;;5031472;28;20036;-77
2021/08/27 09:03:14;;;;;;;2.15;1.00;;;20.00;66.50;;;;;;5026868;28;20087;-79
2021/08/27 09:05:41;;;;;;;2.47;1.13;;;19.90;66.40;;;;;;5031316;28;20411;-79
2021/08/27 09:08:07;;;;;;;2.42;0.80;;;19.80;66.60;;;;;;5032447;28;20534;-78
2021/08/27 09:10:43;;;;;;;2.13;1.15;;;19.80;66.80;;;;;;5033413;28;20028;-77
2021/08/27 09:13:10;;;;;;;2.22;0.95;;;19.70;66.80;;;;;;5030512;28;20100;-77
2021/08/27 09:15:36;;;;;;;2.22;0.90;;;19.80;66.90;;;;;;5035457;28;20022;-78
2021/08/27 09:18:08;;;;;;;2.65;0.95;;;19.90;66.90;;;;;;5042332;28;20029;-77
2021/08/27 09:20:34;;;;;;;2.67;1.02;;;19.90;66.70;;;;;;5031491;28;20032;-80
2021/08/27 09:23:03;;;;;;;5.03;1.55;;;20.10;66.70;;;;;;5036684;28;20048;-78
2021/08/27 09:25:32;;;;;;;2.40;1.00;;;20.20;66.40;;;;;;5035943;28;20529;-79
2021/08/27 09:28:05;;;;;;;4.25;0.90;;;20.20;65.90;;;;;;5037434;28;20078;-79
2021/08/27 09:30:52;;;;;;;2.45;0.90;;;20.20;65.70;;;;;;5035014;28;20027;-82
2021/08/27 09:33:23;;;;;;;1.30;0.80;;;20.30;65.90;;;;;;5030875;28;20387;-78
2021/08/27 09:36:06;;;;;;;2.20;0.90;;;20.30;65.80;;;;;;5030628;28;20029;-81
2021/08/27 09:38:34;;;;;;;4.03;1.50;;;20.20;65.90;;;;;;5035201;28;20293;-80
2021/08/27 09:41:12;;;;;;;2.95;1.10;;;20.10;65.90;;;;;;5032222;28;20027;-81
2021/08/27 09:43:48;;;;;;;4.68;1.00;;;20.00;66.20;;;;;;5027776;28;20035;-92
2021/08/27 09:46:45;;;;;;;3.28;1.00;;;19.90;66.40;;;;;;5041076;28;20079;-85
2021/08/27 09:49:31;;;;;;;3.97;1.17;;;19.90;66.50;;;;;;5036130;28;20025;-89
2021/08/27 09:52:13;;;;;;;5.32;1.42;;;20.00;66.30;;;;;;5041838;28;20028;-93
2021/08/27 09:54:40;;;;;;;;;;;20.00;66.30;;;;;;5064896;28;20040;-91
2021/08/27 09:57:07;;;;;;;3.90;1.08;;;20.10;66.30;;;;;;5042485;28;20435;-90
2021/08/27 09:59:47;;;;;;;10.95;1.73;;;20.20;65.80;;;;;;5046140;28;20028;-90
2021/08/27 10:02:28;;;;;;;2.72;1.10;;;20.40;64.80;;;;;;5032597;28;20057;-90
2021/08/27 10:04:58;;;;;;;2.67;1.10;;;20.50;64.80;;;;;;5040745;28;20128;-80
2021/08/27 10:07:29;;;;;;;3.17;1.40;;;20.50;64.80;;;;;;5036825;28;20017;-81
2021/08/27 10:09:59;;;;;;;3.03;1.10;;;20.50;64.00;;;;;;5028329;28;20060;-81
2021/08/27 10:12:32;;;;;;;3.78;1.20;;;20.50;63.90;;;;;;5030644;28;20033;-81
2021/08/27 10:14:58;;;;;;;3.17;1.10;;;20.40;63.70;;;;;;5034674;28;20313;-81
2021/08/27 10:17:24;;;;;;;2.20;0.90;;;20.10;65.10;;;;;;5039209;28;20021;-82
2021/08/27 10:19:50;;;;;;;1.70;0.93;;;19.70;66.90;;;;;;5040504;28;20033;-83
2021/08/27 10:22:16;;;;;;;2.95;0.95;;;19.30;68.90;;;;;;5040387;28;20082;-83
2021/08/27 10:24:44;;;;;;;2.83;0.90;;;18.90;70.40;;;;;;5031839;28;20037;-82
2021/08/27 10:27:11;;;;;;;3.30;0.95;;;18.70;71.20;;;;;;5027619;28;20095;-83
2021/08/27 10:29:51;;;;;;;3.03;0.80;;;18.60;72.00;;;;;;5029380;28;20013;-83
2021/08/27 10:32:38;;;;;;;2.60;0.98;;;18.50;72.50;;;;;;5026755;28;20026;-82
2021/08/27 10:35:30;;;;;;;2.58;1.10;;;18.50;72.90;;;;;;5029704;28;20033;-81
2021/08/27 10:37:56;;;;;;;3.03;1.00;;;18.50;73.20;;;;;;5028120;28;20037;-79
2021/08/27 10:40:27;;;;;;;1.98;1.00;;;18.50;73.60;;;;;;5032742;28;20514;-80
2021/08/27 10:42:57;;;;;;;4.30;1.20;;;18.60;74.00;;;;;;5027658;28;20100;-82
2021/08/27 10:45:41;;;;;;;3.85;1.05;;;18.70;74.20;;;;;;5034935;28;20468;-80
2021/08/27 10:48:10;;;;;;;3.28;1.13;;;18.90;74.40;;;;;;5037555;28;20109;-80
2021/08/27 10:50:38;;;;;;;1.88;0.82;;;19.10;74.00;;;;;;5029412;28;20047;-80
2021/08/27 10:53:30;;;;;;;1.67;1.08;;;19.20;73.60;;;;;;5027043;28;20515;-82
2021/08/27 10:55:57;;;;;;;2.08;0.82;;;19.20;73.30;;;;;;5030583;28;20472;-79
2021/08/27 10:58:46;;;;;;;2.83;0.90;;;19.30;73.40;;;;;;5033508;28;20026;-78
2021/08/27 11:01:33;;;;;;;2.38;0.93;;;19.40;73.40;;;;;;5027403;28;20021;-79
2021/08/27 11:04:02;;;;;;;2.78;0.90;;;19.40;72.90;;;;;;5029289;28;20075;-79
2021/08/27 11:06:28;;;;;;;3.88;0.90;;;19.50;73.10;;;;;;5034410;28;20503;-78
2021/08/27 11:08:53;;;;;;;1.52;0.85;;;19.60;73.00;;;;;;5026138;28;20392;-79
2021/08/27 11:11:21;;;;;;;4.63;1.10;;;19.70;72.70;;;;;;5030543;28;20025;-80
2021/08/27 11:13:47;;;;;;;3.95;0.80;;;19.80;72.50;;;;;;5033407;28;20029;-81
2021/08/27 11:16:18;;;;;;;1.98;0.95;;;20.00;72.20;;;;;;5031403;28;20747;-80
2021/08/27 11:18:44;;;;;;;2.25;0.80;;;20.10;71.90;;;;;;5032690;28;20409;-80
2021/08/27 11:21:34;;;;;;;3.20;1.17;;;20.30;71.60;;;;;;5026104;28;20022;-79
2021/08/27 11:24:14;;;;;;;2.45;0.80;;;20.40;70.70;;;;;;5031472;28;20033;-80
2021/08/27 11:26:44;;;;;;;3.10;0.93;;;20.40;70.50;;;;;;5027744;28;20025;-78
2021/08/27 11:29:31;;;;;;;2.25;0.88;;;20.50;70.60;;;;;;5032381;28;20029;-77
2021/08/27 11:31:57;;;;;;;3.10;0.90;;;20.60;70.10;;;;;;5031551;28;20087;-77
2021/08/27 11:34:46;;;;;;;2.90;0.90;;;20.50;70.00;;;;;;5029572;28;20034;-78
2021/08/27 11:37:13;;;;;;;2.40;0.90;;;20.60;70.10;;;;;;5032787;28;20341;-78
2021/08/27 11:39:39;;;;;;;3.67;1.10;;;20.70;69.80;;;;;;5033194;28;20017;-78
2021/08/27 11:42:05;;;;;;;4.25;1.20;;;20.80;68.70;;;;;;5023502;28;20500;-76
2021/08/27 11:44:35;;;;;;;2.38;0.70;;;20.90;67.50;;;;;;5032386;28;20032;-76
2021/08/27 11:47:02;;;;;;;1.85;0.90;;;20.90;67.40;;;;;;5030912;28;20151;-76
2021/08/27 11:49:36;;;;;;;2.28;1.17;;;20.90;67.30;;;;;;5026698;28;20555;-76
2021/08/27 11:52:21;;;;;;;6.28;1.15;;;20.90;66.50;;;;;;5032416;28;20017;-75
2021/08/27 11:54:47;;;;;;;3.95;1.50;;;20.90;66.40;;;;;;5034008;28;20022;-77
2021/08/27 11:57:14;;;;;;;3.60;1.38;;;20.80;66.00;;;;;;5033265;28;20075;-76
2021/08/27 11:59:40;;;;;;;3.90;1.00;;;20.70;66.30;;;;;;5035653;28;20021;-76
2021/08/27 12:02:18;;;;;;;4.15;1.20;;;20.60;66.20;;;;;;5032576;28;20083;-76
2021/08/27 12:04:53;;;;;;;4.43;1.40;;;20.60;66.40;;;;;;5029957;28;20026;-75
2021/08/27 12:07:18;;;;;;;4.13;1.33;;;20.60;66.40;;;;;;5036742;28;20784;-76
2021/08/27 12:09:44;;;;;;;3.83;1.30;;;20.80;66.40;;;;;;5032587;28;20068;-76
2021/08/27 12:12:29;;;;;;;4.13;1.45;;;20.80;65.60;;;;;;5032132;28;20467;-76
2021/08/27 12:14:55;;;;;;;3.83;1.40;;;20.80;65.80;;;;;;5030345;28;20022;-75
2021/08/27 12:17:23;;;;;;;4.03;1.30;;;20.80;65.60;;;;;;5034403;28;20028;-78
2021/08/27 12:19:54;;;;;;;5.10;1.33;;;21.00;64.80;;;;;;5031871;28;20037;-77
2021/08/27 12:22:21;;;;;;;3.97;1.40;;;21.00;64.30;;;;;;5040144;28;20021;-77
2021/08/27 12:24:50;;;;;;;2.97;1.17;;;21.20;63.70;;;;;;5035711;28;20085;-76
2021/08/27 12:27:16;;;;;;;5.53;1.27;;;21.30;63.20;;;;;;5028102;28;20044;-77
2021/08/27 12:29:41;;;;;;;2.03;0.85;;;21.40;62.80;;;;;;5027335;28;20480;-78
2021/08/27 12:32:13;;;;;;;3.70;1.20;;;21.50;62.80;;;;;;5030320;28;20033;-78
2021/08/27 12:34:41;;;;;;;3.65;1.10;;;21.60;62.40;;;;;;5030585;28;20484;-78
2021/08/27 12:37:07;;;;;;;3.47;1.35;;;21.40;62.20;;;;;;5030229;28;20030;-77
2021/08/27 12:39:32;;;;;;;4.40;1.35;;;21.20;62.50;;;;;;5034110;28;20090;-77
2021/08/27 12:42:15;;;;;;;4.57;1.50;;;21.00;63.20;;;;;;5026735;28;20033;-76
2021/08/27 12:44:57;;;;;;;3.88;1.40;;;20.90;63.90;;;;;;5026109;28;20024;-77
2021/08/27 12:47:37;;;;;;;3.22;1.05;;;20.90;63.90;;;;;;5029131;28;20569;-76
2021/08/27 12:50:06;;;;;;;5.88;1.42;;;21.10;63.70;;;;;;5026119;28;20031;-77
2021/08/27 12:52:33;;;;;;;3.33;1.13;;;21.30;62.70;;;;;;5032303;28;20025;-78
2021/08/27 12:54:58;;;;;;;3.78;1.50;;;21.50;62.50;;;;;;5031925;28;20061;-79
2021/08/27 12:57:25;;;;;;;2.17;0.98;;;21.50;61.80;;;;;;5029171;28;20536;-79
2021/08/27 12:59:59;;;;;;;2.85;1.42;;;21.50;61.50;;;;;;5021137;28;20025;-78
2021/08/27 13:02:24;;;;;;;4.88;1.75;;;21.70;61.30;;;;;;5022219;28;20083;-79
2021/08/27 13:04:52;;;;;;;3.63;1.42;;;21.80;59.80;;;;;;5029552;28;20033;-79
2021/08/27 13:07:33;;;;;;;3.88;1.67;;;21.80;58.70;;;;;;5030420;28;20488;-78
2021/08/27 13:10:11;;;;;;;4.35;1.50;;;22.00;58.10;;;;;;5026946;28;20430;-77
2021/08/27 13:12:37;;;;;;;2.42;1.30;;;22.00;57.20;;;;;;5025843;28;20037;-77